Time;durP1;ratioP1;P1;durP2;ratioP2;P2;SDS_P1;SDS_P2;PMS_P1;PMS_P2;Temp;Humidity;BMP_temperature;BMP_pressure;BME280_temperature;BME280_humidity;BME280_pressure;Samples;Min_cycle;Max_cycle;Signal;HPM_P1;HPM_P2
2023/07/27 00:00:16;;;;;;;6.72;3.50;;;14.10;99.90;;;;;;5024030;28;20103;-73
2023/07/27 00:02:42;;;;;;;5.78;3.28;;;14.10;99.90;;;;;;5011881;28;20128;-72
2023/07/27 00:05:08;;;;;;;9.05;3.65;;;14.10;99.90;;;;;;5027194;28;20060;-72
2023/07/27 00:07:34;;;;;;;6.72;3.22;;;14.10;99.90;;;;;;5014489;28;20526;-72
2023/07/27 00:09:59;;;;;;;6.90;3.42;;;14.10;99.90;;;;;;4991943;28;20519;-72
2023/07/27 00:12:25;;;;;;;9.95;3.33;;;14.10;99.90;;;;;;5011533;28;20505;-72
2023/07/27 00:14:51;;;;;;;5.95;2.67;;;14.10;99.90;;;;;;5008612;28;20118;-72
2023/07/27 00:17:16;;;;;;;6.38;3.20;;;14.20;99.90;;;;;;5014757;28;20465;-72
2023/07/27 00:19:43;;;;;;;8.38;3.78;;;14.10;99.90;;;;;;5007792;28;20037;-72
2023/07/27 00:22:08;;;;;;;7.55;3.42;;;14.10;99.90;;;;;;5006977;28;20503;-72
2023/07/27 00:24:34;;;;;;;7.90;3.35;;;14.10;99.90;;;;;;5028128;28;20088;-72
2023/07/27 00:27:03;;;;;;;6.03;3.15;;;14.10;99.90;;;;;;5009758;28;20072;-73
2023/07/27 00:29:29;;;;;;;5.90;3.00;;;14.10;99.90;;;;;;4994381;28;20454;-72
2023/07/27 00:31:54;;;;;;;9.88;4.03;;;14.20;99.90;;;;;;5001501;28;20089;-72
2023/07/27 00:34:20;;;;;;;7.95;3.85;;;14.10;99.90;;;;;;5008056;28;20147;-72
2023/07/27 00:36:46;;;;;;;6.80;3.30;;;14.10;99.90;;;;;;5010831;28;20037;-72
2023/07/27 00:39:12;;;;;;;6.65;3.17;;;14.10;99.90;;;;;;5014397;28;20067;-72
2023/07/27 00:41:42;;;;;;;5.10;2.88;;;14.20;99.90;;;;;;5007382;28;20423;-72
2023/07/27 00:44:08;;;;;;;6.22;3.38;;;14.10;99.90;;;;;;5010038;28;20052;-72
2023/07/27 00:46:38;;;;;;;7.03;3.42;;;14.20;99.90;;;;;;5014762;28;20049;-72
2023/07/27 00:49:04;;;;;;;9.88;3.22;;;14.20;99.90;;;;;;5025213;22;20522;-71
2023/07/27 00:51:35;;;;;;;7.05;3.50;;;14.20;99.90;;;;;;5027535;28;20128;-71
2023/07/27 00:54:02;;;;;;;6.25;2.83;;;14.20;99.90;;;;;;5026905;28;20136;-70
2023/07/27 00:56:29;;;;;;;5.82;3.15;;;14.20;99.90;;;;;;5027124;28;20087;-71
2023/07/27 00:58:55;;;;;;;6.55;3.20;;;14.20;99.90;;;;;;5028727;28;20085;-71
2023/07/27 01:01:21;;;;;;;7.55;3.55;;;14.20;99.90;;;;;;5026447;28;20552;-70
2023/07/27 01:03:47;;;;;;;;;;;14.20;99.90;;;;;;5029179;28;20102;-71
2023/07/27 01:06:13;;;;;;;6.85;3.13;;;14.20;99.90;;;;;;5025035;28;20359;-71
2023/07/27 01:08:38;;;;;;;6.07;2.97;;;14.20;99.90;;;;;;5028274;28;20128;-71
2023/07/27 01:11:20;;;;;;;9.87;3.47;;;14.20;99.90;;;;;;5025860;28;20412;-71
2023/07/27 01:13:58;;;;;;;6.65;3.20;;;14.20;99.90;;;;;;5039665;28;20282;-71
2023/07/27 01:16:35;;;;;;;11.23;3.72;;;14.20;99.90;;;;;;5023963;28;20456;-71
2023/07/27 01:19:07;;;;;;;7.70;3.22;;;14.20;99.90;;;;;;5027451;28;20382;-71
2023/07/27 01:21:38;;;;;;;9.07;3.45;;;14.20;99.90;;;;;;5026065;28;20399;-71
2023/07/27 01:24:19;;;;;;;9.13;3.95;;;14.20;99.90;;;;;;5028856;28;20122;-71
2023/07/27 01:27:18;;;;;;;9.60;3.88;;;14.20;99.90;;;;;;5027765;28;20049;-71
2023/07/27 01:29:59;;;;;;;7.20;3.72;;;14.20;99.90;;;;;;5027078;28;20045;-71
2023/07/27 01:32:28;;;;;;;7.65;3.78;;;14.20;99.90;;;;;;5026202;28;20069;-71
2023/07/27 01:34:57;;;;;;;6.82;3.63;;;14.20;99.90;;;;;;5026298;28;20188;-71
2023/07/27 01:37:26;;;;;;;6.72;3.58;;;14.20;99.90;;;;;;5030866;28;20109;-71
2023/07/27 01:39:53;;;;;;;9.32;3.28;;;14.20;99.90;;;;;;5030833;28;20410;-71
2023/07/27 01:42:22;;;;;;;8.63;3.17;;;14.20;99.90;;;;;;5026963;28;20045;-71
2023/07/27 01:44:49;;;;;;;9.48;3.95;;;14.20;99.90;;;;;;5028357;28;20120;-71
2023/07/27 01:47:16;;;;;;;7.57;4.03;;;14.20;99.90;;;;;;5026654;28;20037;-71
2023/07/27 01:49:42;;;;;;;9.10;3.67;;;14.20;99.90;;;;;;5026455;28;20494;-71
2023/07/27 01:52:09;;;;;;;6.10;3.65;;;14.10;99.90;;;;;;5027899;28;20069;-71
2023/07/27 01:54:36;;;;;;;7.30;3.83;;;14.10;99.90;;;;;;5027687;28;20056;-71
2023/07/27 01:57:04;;;;;;;6.65;3.38;;;14.20;99.90;;;;;;5025966;28;20069;-70
2023/07/27 01:59:32;;;;;;;7.43;3.30;;;14.20;99.90;;;;;;5024483;28;20049;-71
2023/07/27 02:01:59;;;;;;;7.32;3.33;;;14.20;99.90;;;;;;5025487;28;20456;-71
2023/07/27 02:04:25;;;;;;;7.43;3.35;;;14.10;99.90;;;;;;5026834;28;20507;-71
2023/07/27 02:06:51;;;;;;;5.47;3.08;;;14.20;99.90;;;;;;5011479;28;20045;-71
2023/07/27 02:09:17;;;;;;;7.03;3.22;;;14.10;99.90;;;;;;5027450;28;20068;-71
2023/07/27 02:11:46;;;;;;;8.30;4.03;;;14.10;99.90;;;;;;5010991;28;20049;-71
2023/07/27 02:14:41;;;;;;;7.45;3.25;;;14.10;99.90;;;;;;5019604;28;20038;-71
2023/07/27 02:17:20;;;;;;;7.07;3.70;;;14.20;99.90;;;;;;5024957;28;20049;-71
2023/07/27 02:19:51;;;;;;;8.98;4.18;;;14.20;99.90;;;;;;5026094;28;20491;-71
2023/07/27 02:22:17;;;;;;;5.68;3.05;;;14.20;99.90;;;;;;5024640;28;20053;-71
2023/07/27 02:24:43;;;;;;;7.05;3.90;;;14.10;99.90;;;;;;5004204;28;20103;-70
2023/07/27 02:27:09;;;;;;;7.90;3.58;;;14.20;99.90;;;;;;5025431;28;20120;-70
2023/07/27 02:29:37;;;;;;;8.07;3.40;;;14.20;99.90;;;;;;5023609;28;20132;-70
2023/07/27 02:32:03;;;;;;;6.30;3.20;;;14.20;99.90;;;;;;5010352;28;20052;-70
2023/07/27 02:34:29;;;;;;;7.50;3.28;;;14.20;99.90;;;;;;5027259;28;20406;-70
2023/07/27 02:36:54;;;;;;;7.20;3.08;;;14.20;99.90;;;;;;5025048;28;20389;-70
2023/07/27 02:39:20;;;;;;;9.48;3.15;;;14.20;99.90;;;;;;5025694;28;20132;-70
2023/07/27 02:41:45;;;;;;;6.75;3.08;;;14.20;99.90;;;;;;5020774;28;20572;-70
2023/07/27 02:44:11;;;;;;;9.27;3.75;;;14.30;99.90;;;;;;5028249;28;20451;-70
2023/07/27 02:46:37;;;;;;;5.68;3.28;;;14.30;99.90;;;;;;5009086;28;20132;-70
2023/07/27 02:49:02;;;;;;;9.67;3.70;;;14.30;99.90;;;;;;5034271;28;20033;-70
2023/07/27 02:51:28;;;;;;;6.67;3.63;;;14.30;99.90;;;;;;5032982;28;20274;-70
2023/07/27 02:53:54;;;;;;;6.63;3.10;;;14.30;99.90;;;;;;5016580;28;20302;-70
2023/07/27 02:56:19;;;;;;;8.75;4.53;;;14.30;99.90;;;;;;5029269;28;20064;-70
2023/07/27 02:58:45;;;;;;;8.93;4.30;;;14.30;99.90;;;;;;5032717;28;20045;-70
2023/07/27 03:01:10;;;;;;;7.95;3.63;;;14.30;99.90;;;;;;5030405;28;20037;-70
2023/07/27 03:03:36;;;;;;;9.35;4.20;;;14.30;99.90;;;;;;5031043;28;20041;-70
2023/07/27 03:06:03;;;;;;;6.63;3.97;;;14.30;99.90;;;;;;5024069;28;20461;-70
2023/07/27 03:08:29;;;;;;;8.98;4.30;;;14.30;99.90;;;;;;5021037;28;20056;-70
2023/07/27 03:10:59;;;;;;;7.55;3.88;;;14.30;99.90;;;;;;5045755;28;20041;-70
2023/07/27 03:13:25;;;;;;;6.95;3.25;;;14.30;99.90;;;;;;5031844;28;20036;-70
2023/07/27 03:15:51;;;;;;;6.38;3.58;;;14.30;99.90;;;;;;5029165;28;20028;-70
2023/07/27 03:18:17;;;;;;;5.88;3.45;;;14.30;99.90;;;;;;5031067;28;20064;-70
2023/07/27 03:20:43;;;;;;;6.03;3.42;;;14.30;99.90;;;;;;5028471;28;20533;-70
2023/07/27 03:23:09;;;;;;;7.60;3.60;;;14.30;99.90;;;;;;5047232;28;20083;-70
2023/07/27 03:25:36;;;;;;;6.70;3.45;;;14.30;99.90;;;;;;5029132;28;20418;-70
2023/07/27 03:28:06;;;;;;;6.95;3.55;;;14.30;99.90;;;;;;5029321;28;20126;-70
2023/07/27 03:30:36;;;;;;;6.35;3.72;;;14.40;99.90;;;;;;5025295;28;20045;-70
2023/07/27 03:33:06;;;;;;;7.85;3.35;;;14.40;99.90;;;;;;5045771;28;20052;-71
2023/07/27 03:35:32;;;;;;;6.32;3.35;;;14.40;99.90;;;;;;5028601;28;20040;-70
2023/07/27 03:37:58;;;;;;;8.25;4.03;;;14.40;99.90;;;;;;5029558;28;20501;-70
2023/07/27 03:40:24;;;;;;;9.50;3.67;;;14.50;99.90;;;;;;5021648;28;20037;-70
2023/07/27 03:42:49;;;;;;;7.55;3.80;;;14.50;99.90;;;;;;5028496;28;20068;-70
2023/07/27 03:45:16;;;;;;;8.25;3.95;;;14.50;99.90;;;;;;5041591;28;20506;-70
2023/07/27 03:47:45;;;;;;;6.70;3.70;;;14.40;99.90;;;;;;5008480;28;20301;-70
2023/07/27 03:50:12;;;;;;;6.40;3.42;;;14.40;99.90;;;;;;5040094;28;20045;-70
2023/07/27 03:52:38;;;;;;;;;;;14.40;99.90;;;;;;5030407;28;20033;-71
2023/07/27 03:55:04;;;;;;;7.40;3.55;;;14.40;99.90;;;;;;5027535;28;19943;-70
2023/07/27 03:57:30;;;;;;;6.93;3.60;;;14.40;99.90;;;;;;5012859;28;20044;-71
2023/07/27 03:59:59;;;;;;;7.35;3.45;;;14.40;99.90;;;;;;5030557;28;20037;-71
2023/07/27 04:02:26;;;;;;;7.90;4.03;;;14.40;99.90;;;;;;5027038;28;20032;-71
2023/07/27 04:04:52;;;;;;;10.68;4.22;;;14.40;99.90;;;;;;5025506;28;20095;-71
2023/07/27 04:07:18;;;;;;;7.10;4.38;;;14.30;99.90;;;;;;5033396;28;20108;-70
2023/07/27 04:09:44;;;;;;;;;;;14.30;99.90;;;;;;5027629;28;20112;-70
2023/07/27 04:12:09;;;;;;;7.43;4.00;;;14.30;99.90;;;;;;5027889;28;20023;-71
2023/07/27 04:14:36;;;;;;;11.27;4.30;;;14.30;99.90;;;;;;5033737;28;20053;-71
2023/07/27 04:17:05;;;;;;;7.38;3.97;;;14.20;99.90;;;;;;5030335;28;20494;-70
2023/07/27 04:19:32;;;;;;;7.65;4.13;;;14.20;99.90;;;;;;5019206;28;20051;-70
2023/07/27 04:21:58;;;;;;;8.23;4.20;;;14.20;99.90;;;;;;5044940;28;20106;-70
2023/07/27 04:24:24;;;;;;;10.20;4.07;;;14.30;99.90;;;;;;5045059;28;20076;-70
2023/07/27 04:26:49;;;;;;;14.05;5.75;;;14.20;99.90;;;;;;5027696;28;20053;-70
2023/07/27 04:29:15;;;;;;;9.32;4.68;;;14.20;99.90;;;;;;5029163;28;20036;-70
2023/07/27 04:31:40;;;;;;;8.55;4.60;;;14.30;99.90;;;;;;5030514;28;20056;-70
2023/07/27 04:34:06;;;;;;;10.65;4.45;;;14.30;99.90;;;;;;5045615;28;20079;-71
2023/07/27 04:36:32;;;;;;;11.50;4.35;;;14.20;99.90;;;;;;5028911;28;20080;-70
2023/07/27 04:38:57;;;;;;;11.40;5.88;;;14.20;99.90;;;;;;5041600;28;20446;-70
2023/07/27 04:41:23;;;;;;;8.50;4.70;;;14.20;99.90;;;;;;5027420;28;20044;-70
2023/07/27 04:43:49;;;;;;;11.00;5.13;;;14.20;99.90;;;;;;5009901;28;20268;-70
2023/07/27 04:46:15;;;;;;;10.65;5.55;;;14.20;99.90;;;;;;5045890;28;20502;-70
2023/07/27 04:48:40;;;;;;;11.35;5.22;;;14.20;99.90;;;;;;5026345;28;20080;-70
2023/07/27 04:51:06;;;;;;;13.20;5.65;;;14.20;99.90;;;;;;5021589;28;20075;-70
2023/07/27 04:53:32;;;;;;;11.18;4.65;;;14.20;99.90;;;;;;5022396;28;20049;-70
2023/07/27 04:55:57;;;;;;;9.40;5.07;;;14.20;99.90;;;;;;5007672;28;20085;-70
2023/07/27 04:58:23;;;;;;;10.73;5.20;;;14.30;99.90;;;;;;5026934;28;20275;-70
2023/07/27 05:00:53;;;;;;;10.30;5.85;;;14.30;99.90;;;;;;5024834;28;20136;-70
2023/07/27 05:03:19;;;;;;;10.77;4.82;;;14.30;99.90;;;;;;5022982;28;20140;-70
2023/07/27 05:05:45;;;;;;;11.60;5.70;;;14.30;99.90;;;;;;5023024;28;20046;-70
2023/07/27 05:08:11;;;;;;;13.37;5.23;;;14.30;99.90;;;;;;5022091;28;20091;-70
2023/07/27 05:10:40;;;;;;;12.45;5.95;;;14.30;99.90;;;;;;5006162;28;20306;-70
2023/07/27 05:13:08;;;;;;;10.32;5.35;;;14.30;99.90;;;;;;5025918;28;20042;-70
2023/07/27 05:15:34;;;;;;;11.15;5.40;;;14.30;99.90;;;;;;5023728;28;20048;-70
2023/07/27 05:18:00;;;;;;;11.77;5.50;;;14.40;99.90;;;;;;5024055;28;20033;-71
2023/07/27 05:20:26;;;;;;;9.80;4.68;;;14.40;99.90;;;;;;5023505;28;20107;-71
2023/07/27 05:22:52;;;;;;;8.77;4.88;;;14.40;99.90;;;;;;5024971;28;20459;-70
2023/07/27 05:25:17;;;;;;;12.35;4.95;;;14.40;99.90;;;;;;5022492;28;20038;-70
2023/07/27 05:27:43;;;;;;;11.40;5.22;;;14.40;99.90;;;;;;5025445;28;20462;-71
2023/07/27 05:30:09;;;;;;;10.27;5.30;;;14.40;99.90;;;;;;5023539;28;20351;-70
2023/07/27 05:32:35;;;;;;;11.38;5.38;;;14.40;99.90;;;;;;5024425;28;20048;-71
2023/07/27 05:35:00;;;;;;;9.00;5.03;;;14.40;99.90;;;;;;5027203;28;20045;-71
2023/07/27 05:37:26;;;;;;;9.30;4.87;;;14.40;99.90;;;;;;5026781;28;20133;-71
2023/07/27 05:39:52;;;;;;;9.13;4.50;;;14.40;99.90;;;;;;5029030;28;20366;-71
2023/07/27 05:42:18;;;;;;;10.02;5.05;;;14.40;99.90;;;;;;5028325;28;20045;-71
2023/07/27 05:44:43;;;;;;;8.45;4.35;;;14.50;99.90;;;;;;5018292;28;20060;-70
2023/07/27 05:47:09;;;;;;;8.82;4.10;;;14.50;99.90;;;;;;5024827;28;20053;-71
2023/07/27 05:49:35;;;;;;;8.63;4.25;;;14.50;99.90;;;;;;5041622;28;20601;-70
2023/07/27 05:52:00;;;;;;;8.27;4.30;;;14.50;99.90;;;;;;5035809;28;20033;-71
2023/07/27 05:54:26;;;;;;;7.13;3.88;;;14.50;99.90;;;;;;5027873;28;20048;-71
2023/07/27 05:56:52;;;;;;;11.00;4.15;;;14.50;99.90;;;;;;5034964;28;20059;-71
2023/07/27 05:59:17;;;;;;;9.73;4.18;;;14.50;99.90;;;;;;5032012;28;20049;-71
2023/07/27 06:01:43;;;;;;;7.75;4.18;;;14.60;99.90;;;;;;5035310;28;20124;-70
2023/07/27 06:04:09;;;;;;;7.78;4.43;;;14.60;99.90;;;;;;5015399;28;20049;-71
2023/07/27 06:06:37;;;;;;;7.00;3.93;;;14.60;99.90;;;;;;5013166;28;20410;-71
2023/07/27 06:09:03;;;;;;;9.43;4.05;;;14.60;99.90;;;;;;5030130;28;20293;-71
2023/07/27 06:11:29;;;;;;;6.93;4.05;;;14.70;99.90;;;;;;5027254;28;20174;-71
2023/07/27 06:13:55;;;;;;;9.02;3.88;;;14.70;99.90;;;;;;5032476;28;20617;-71
2023/07/27 06:16:20;;;;;;;6.55;3.67;;;14.70;99.90;;;;;;5031523;28;20045;-71
2023/07/27 06:18:46;;;;;;;11.95;4.35;;;14.70;99.90;;;;;;5030554;28;20086;-71
2023/07/27 06:21:14;;;;;;;6.50;3.25;;;14.70;99.90;;;;;;5034541;28;20080;-71
2023/07/27 06:23:39;;;;;;;6.78;4.10;;;14.80;99.90;;;;;;5031407;28;20053;-74
2023/07/27 06:26:06;;;;;;;7.15;3.50;;;14.80;99.90;;;;;;5028724;28;20395;-70
2023/07/27 06:28:31;;;;;;;8.65;3.88;;;14.80;99.90;;;;;;5022977;28;20087;-71
2023/07/27 06:30:57;;;;;;;10.07;4.57;;;14.80;99.90;;;;;;5031702;28;20079;-71
2023/07/27 06:33:23;;;;;;;9.70;4.63;;;14.80;99.90;;;;;;5024098;28;20049;-71
2023/07/27 06:35:48;;;;;;;11.52;4.68;;;14.80;99.90;;;;;;5031995;28;20041;-71
2023/07/27 06:38:14;;;;;;;11.73;5.32;;;14.80;99.90;;;;;;5031165;28;20045;-71
2023/07/27 06:40:40;;;;;;;6.88;3.65;;;14.80;99.90;;;;;;5030896;28;20182;-71
2023/07/27 06:43:06;;;;;;;9.70;4.50;;;14.80;99.90;;;;;;5032106;28;20486;-71
2023/07/27 06:45:33;;;;;;;10.32;4.70;;;14.80;99.90;;;;;;5029390;28;20053;-71
2023/07/27 06:47:59;;;;;;;6.75;3.42;;;14.90;99.90;;;;;;5036443;28;20041;-71
2023/07/27 06:50:25;;;;;;;8.27;4.25;;;14.90;99.90;;;;;;5027396;28;20056;-71
2023/07/27 06:52:51;;;;;;;13.02;4.60;;;15.00;99.90;;;;;;5027274;28;20124;-71
2023/07/27 06:55:17;;;;;;;9.15;4.50;;;15.00;99.90;;;;;;5025299;28;20499;-71
2023/07/27 06:57:43;;;;;;;8.75;3.70;;;15.00;99.90;;;;;;5026923;28;20061;-71
2023/07/27 07:00:09;;;;;;;5.32;2.92;;;15.00;99.90;;;;;;5027033;28;20049;-71
2023/07/27 07:02:34;;;;;;;7.25;3.58;;;15.10;99.90;;;;;;5026446;28;20052;-71
2023/07/27 07:05:00;;;;;;;5.97;3.40;;;15.10;99.90;;;;;;5025864;28;20042;-71
2023/07/27 07:07:26;;;;;;;6.78;2.88;;;15.20;99.90;;;;;;5026841;28;20068;-71
2023/07/27 07:09:52;;;;;;;6.05;3.25;;;15.20;99.90;;;;;;5027479;28;20049;-72
2023/07/27 07:12:18;;;;;;;6.57;3.55;;;15.20;99.90;;;;;;5007932;28;20099;-71
2023/07/27 07:14:43;;;;;;;5.38;2.90;;;15.30;99.90;;;;;;5022844;28;20038;-71
2023/07/27 07:17:09;;;;;;;7.50;4.07;;;15.40;99.90;;;;;;5025976;28;20057;-72
2023/07/27 07:19:35;;;;;;;5.82;3.38;;;15.40;99.90;;;;;;5021847;28;20037;-71
2023/07/27 07:22:00;;;;;;;6.55;3.60;;;15.40;99.90;;;;;;5019289;28;20073;-71
2023/07/27 07:24:26;;;;;;;6.82;3.83;;;15.50;99.90;;;;;;5024696;28;20092;-71
2023/07/27 07:26:52;;;;;;;6.15;3.15;;;15.50;99.90;;;;;;5022566;28;20053;-71
2023/07/27 07:29:17;;;;;;;6.75;3.33;;;15.60;99.90;;;;;;5022487;28;20053;-71
2023/07/27 07:31:43;;;;;;;6.93;3.60;;;15.60;99.90;;;;;;5020307;28;20133;-72
2023/07/27 07:34:09;;;;;;;7.20;3.92;;;15.60;99.90;;;;;;5019792;28;20121;-72
2023/07/27 07:36:34;;;;;;;7.50;3.10;;;15.70;99.90;;;;;;5022690;28;20068;-72
2023/07/27 07:39:00;;;;;;;5.47;3.22;;;15.70;99.90;;;;;;5025844;28;20282;-72
2023/07/27 07:41:26;;;;;;;6.07;3.45;;;15.70;99.90;;;;;;5023120;28;20057;-71
2023/07/27 07:43:51;;;;;;;7.47;4.05;;;15.70;99.90;;;;;;5027095;28;20116;-71
2023/07/27 07:46:18;;;;;;;6.72;3.58;;;15.70;99.90;;;;;;5017971;28;20053;-71
2023/07/27 07:48:43;;;;;;;6.05;3.83;;;15.80;99.90;;;;;;5020859;28;20071;-71
2023/07/27 07:51:13;;;;;;;4.47;2.42;;;15.80;99.90;;;;;;5025359;28;20111;-72
2023/07/27 07:53:39;;;;;;;4.15;2.40;;;15.80;99.90;;;;;;5024760;28;20109;-72
2023/07/27 07:56:11;;;;;;;4.25;2.30;;;15.80;99.90;;;;;;5007484;28;20125;-71
2023/07/27 07:58:37;;;;;;;4.68;2.50;;;15.80;99.90;;;;;;5042160;28;20123;-71
2023/07/27 08:01:03;;;;;;;4.60;2.55;;;15.80;99.90;;;;;;5024582;28;20511;-72
2023/07/27 08:03:28;;;;;;;5.35;2.58;;;15.80;99.90;;;;;;5025745;28;20041;-71
2023/07/27 08:05:54;;;;;;;3.88;2.08;;;15.80;99.90;;;;;;5026791;28;20491;-71
2023/07/27 08:08:20;;;;;;;3.85;2.47;;;15.80;99.90;;;;;;5028302;28;20119;-71
2023/07/27 08:10:45;;;;;;;4.50;2.53;;;15.80;99.90;;;;;;5017800;28;20551;-71
2023/07/27 08:13:11;;;;;;;4.80;2.30;;;15.80;99.90;;;;;;5022712;28;20057;-72
2023/07/27 08:15:37;;;;;;;2.92;1.83;;;15.80;99.90;;;;;;5005737;28;20041;-71
2023/07/27 08:18:03;;;;;;;3.58;2.25;;;15.80;99.90;;;;;;5022430;28;20522;-71
2023/07/27 08:20:29;;;;;;;;;;;15.80;99.90;;;;;;5003166;28;20427;-71
2023/07/27 08:22:55;;;;;;;3.45;2.10;;;15.80;99.90;;;;;;5024040;28;20008;-71
2023/07/27 08:25:21;;;;;;;3.33;2.03;;;15.80;99.90;;;;;;5023281;28;20144;-72
2023/07/27 08:27:50;;;;;;;3.72;1.85;;;15.80;99.90;;;;;;5021321;28;20049;-71
2023/07/27 08:30:16;;;;;;;3.85;1.85;;;15.80;99.90;;;;;;5019244;28;20041;-73
2023/07/27 08:32:41;;;;;;;2.70;1.65;;;15.80;99.90;;;;;;5019955;28;20494;-71
2023/07/27 08:35:08;;;;;;;2.47;1.50;;;15.90;99.90;;;;;;5024904;28;20075;-71
2023/07/27 08:37:33;;;;;;;2.72;1.55;;;15.90;99.90;;;;;;5024082;28;20049;-72
2023/07/27 08:39:59;;;;;;;2.97;1.50;;;15.90;99.90;;;;;;5024907;28;20056;-72
2023/07/27 08:42:25;;;;;;;2.80;1.67;;;15.90;99.90;;;;;;5024955;28;20095;-73
2023/07/27 08:44:51;;;;;;;4.25;2.10;;;15.90;99.90;;;;;;5022415;28;20059;-72
2023/07/27 08:47:18;;;;;;;2.58;1.40;;;16.00;99.90;;;;;;5026159;28;20594;-71
2023/07/27 08:49:45;;;;;;;2.40;1.38;;;15.90;99.90;;;;;;5008954;28;20029;-73
2023/07/27 08:52:13;;;;;;;2.97;1.50;;;15.90;99.90;;;;;;5025399;28;20504;-73
2023/07/27 08:54:38;;;;;;;3.33;1.65;;;16.00;99.90;;;;;;5024463;28;20033;-73
2023/07/27 08:57:04;;;;;;;2.10;1.27;;;16.00;99.90;;;;;;5021384;28;20042;-71
2023/07/27 08:59:30;;;;;;;4.25;1.67;;;16.00;99.90;;;;;;5026418;28;20701;-71
2023/07/27 09:01:56;;;;;;;2.33;1.48;;;16.00;99.90;;;;;;5021026;28;20064;-75
2023/07/27 09:04:22;;;;;;;2.45;1.15;;;16.10;99.90;;;;;;5024058;28;20126;-75
2023/07/27 09:06:51;;;;;;;2.95;1.65;;;16.00;99.90;;;;;;5025139;28;20471;-71
2023/07/27 09:09:25;;;;;;;4.60;1.60;;;16.00;99.90;;;;;;5012123;28;20049;-72
2023/07/27 09:11:54;;;;;;;2.85;1.70;;;16.10;99.90;;;;;;5023225;28;20045;-77
2023/07/27 09:14:20;;;;;;;2.50;1.50;;;16.10;99.90;;;;;;5024332;28;20545;-70
2023/07/27 09:16:47;;;;;;;2.47;1.45;;;16.10;99.90;;;;;;5027141;28;20047;-74
2023/07/27 09:19:15;;;;;;;2.83;1.63;;;16.10;99.90;;;;;;5024303;28;20183;-77
2023/07/27 09:21:48;;;;;;;2.88;1.67;;;16.10;99.90;;;;;;5027994;28;20042;-73
2023/07/27 09:24:15;;;;;;;3.42;2.20;;;16.10;99.90;;;;;;5026562;28;20448;-76
2023/07/27 09:26:49;;;;;;;3.38;1.55;;;16.10;99.90;;;;;;5027244;28;20069;-72
2023/07/27 09:29:20;;;;;;;5.05;1.80;;;16.20;99.90;;;;;;5021207;28;20064;-74
2023/07/27 09:31:57;;;;;;;3.05;1.63;;;16.10;99.90;;;;;;5026927;28;20041;-77
2023/07/27 09:34:23;;;;;;;3.22;1.73;;;16.20;99.90;;;;;;5023284;28;20120;-76
2023/07/27 09:36:49;;;;;;;4.40;1.92;;;16.20;99.90;;;;;;5021613;28;20431;-73
2023/07/27 09:39:15;;;;;;;2.22;1.40;;;16.20;99.90;;;;;;5025723;28;20042;-70
2023/07/27 09:41:46;;;;;;;2.33;1.35;;;16.30;99.90;;;;;;5020964;28;20467;-70
2023/07/27 09:44:16;;;;;;;1.95;1.10;;;16.30;99.90;;;;;;5023791;28;20103;-70
2023/07/27 09:46:42;;;;;;;2.47;1.60;;;16.30;99.90;;;;;;5028171;28;20479;-71
2023/07/27 09:49:09;;;;;;;3.67;1.63;;;16.40;99.90;;;;;;5034276;28;20115;-70
2023/07/27 09:51:35;;;;;;;2.40;1.40;;;16.40;99.90;;;;;;5041407;28;20556;-71
2023/07/27 09:54:01;;;;;;;;;;;16.40;99.90;;;;;;5029530;28;20047;-70
2023/07/27 09:56:31;;;;;;;2.67;1.40;;;16.50;99.90;;;;;;5031006;28;21097;-70
2023/07/27 09:58:58;;;;;;;3.17;1.80;;;16.50;99.90;;;;;;5011505;28;20037;-70
2023/07/27 10:01:25;;;;;;;1.95;1.13;;;16.50;99.90;;;;;;5028098;28;20045;-70
2023/07/27 10:03:52;;;;;;;2.15;1.33;;;16.50;99.90;;;;;;5028546;28;20060;-70
2023/07/27 10:06:18;;;;;;;2.47;1.40;;;16.50;99.90;;;;;;5025048;28;20116;-70
2023/07/27 10:08:45;;;;;;;2.67;1.70;;;16.50;99.90;;;;;;5013311;28;20052;-70
2023/07/27 10:11:11;;;;;;;2.80;1.45;;;16.60;99.90;;;;;;5023402;28;20051;-70
2023/07/27 10:13:44;;;;;;;2.75;1.73;;;16.60;99.90;;;;;;5036755;28;20428;-70
2023/07/27 10:16:17;;;;;;;2.25;1.45;;;16.60;99.90;;;;;;5013936;28;20040;-71
2023/07/27 10:18:45;;;;;;;3.13;1.80;;;16.70;99.90;;;;;;5036704;28;20044;-71
2023/07/27 10:21:21;;;;;;;2.25;1.60;;;16.70;99.90;;;;;;5032300;28;20112;-71
2023/07/27 10:24:01;;;;;;;3.77;1.87;;;16.80;99.90;;;;;;5028104;28;20029;-71
2023/07/27 10:26:52;;;;;;;3.00;1.90;;;16.80;99.90;;;;;;5016311;28;20120;-71
2023/07/27 10:29:27;;;;;;;3.15;2.13;;;16.90;99.90;;;;;;5025083;28;20087;-72
2023/07/27 10:32:06;;;;;;;3.80;2.20;;;16.90;99.90;;;;;;5025412;28;20067;-71
2023/07/27 10:34:34;;;;;;;3.38;2.28;;;17.00;99.90;;;;;;5048197;28;20470;-71
2023/07/27 10:37:03;;;;;;;4.00;2.30;;;17.00;99.90;;;;;;5032578;28;20037;-72
2023/07/27 10:39:45;;;;;;;2.60;1.90;;;17.00;99.90;;;;;;5031472;28;20076;-72
2023/07/27 10:42:13;;;;;;;3.40;2.28;;;17.00;99.90;;;;;;5029066;28;20052;-71
2023/07/27 10:44:54;;;;;;;3.22;2.28;;;17.00;99.90;;;;;;5029209;28;20502;-71
2023/07/27 10:47:23;;;;;;;3.03;2.17;;;17.00;99.90;;;;;;5024126;28;20068;-72
2023/07/27 10:49:54;;;;;;;3.08;1.90;;;17.10;99.90;;;;;;5004646;28;20110;-72
2023/07/27 10:52:37;;;;;;;3.22;2.08;;;17.00;99.90;;;;;;5029501;28;20051;-71
2023/07/27 10:55:05;;;;;;;3.17;2.03;;;17.10;99.90;;;;;;5009934;28;20135;-71
2023/07/27 10:57:32;;;;;;;3.22;1.88;;;17.10;99.90;;;;;;5029528;28;20182;-72
2023/07/27 10:59:59;;;;;;;3.25;2.35;;;17.10;99.90;;;;;;5020558;28;20028;-71
2023/07/27 11:02:32;;;;;;;3.65;2.40;;;17.20;99.90;;;;;;5019017;28;20069;-71
2023/07/27 11:04:59;;;;;;;3.75;2.42;;;17.20;99.90;;;;;;5024017;28;20151;-72
2023/07/27 11:07:30;;;;;;;3.42;2.30;;;17.30;99.90;;;;;;5029831;28;20086;-71
2023/07/27 11:09:57;;;;;;;5.63;2.50;;;17.30;99.90;;;;;;5030830;28;20090;-72
2023/07/27 11:12:23;;;;;;;4.28;2.50;;;17.30;99.90;;;;;;5030956;28;20040;-71
2023/07/27 11:14:50;;;;;;;;;;;17.40;99.90;;;;;;5031337;28;20116;-72
2023/07/27 11:17:16;;;;;;;3.35;2.20;;;17.50;99.90;;;;;;5015486;28;19921;-72
2023/07/27 11:19:43;;;;;;;2.85;2.40;;;17.50;99.90;;;;;;5031852;28;20053;-72
2023/07/27 11:22:09;;;;;;;2.90;2.25;;;17.50;99.90;;;;;;5012791;28;20072;-72
2023/07/27 11:24:35;;;;;;;2.67;1.95;;;17.50;99.90;;;;;;5017141;28;20408;-72
2023/07/27 11:27:01;;;;;;;3.97;2.63;;;17.60;99.90;;;;;;5027351;28;20049;-72
2023/07/27 11:29:27;;;;;;;4.47;1.67;;;17.60;99.90;;;;;;5027678;28;20491;-72
2023/07/27 11:32:00;;;;;;;2.60;2.00;;;17.70;99.90;;;;;;5022705;28;20401;-72
2023/07/27 11:34:28;;;;;;;2.80;1.88;;;17.70;99.90;;;;;;5026467;28;20051;-72
2023/07/27 11:36:57;;;;;;;2.83;2.00;;;17.80;99.90;;;;;;5028311;28;20049;-71
2023/07/27 11:39:23;;;;;;;2.85;2.20;;;17.80;99.90;;;;;;5033453;28;20044;-71
2023/07/27 11:41:50;;;;;;;3.45;2.30;;;17.80;99.90;;;;;;5030593;28;20041;-72
2023/07/27 11:44:19;;;;;;;5.07;2.40;;;17.80;99.90;;;;;;5033653;28;20120;-72
2023/07/27 11:46:49;;;;;;;4.28;2.15;;;17.80;99.90;;;;;;5028389;28;20037;-72
2023/07/27 11:49:16;;;;;;;5.15;2.50;;;17.90;99.90;;;;;;5032717;28;20052;-72
2023/07/27 11:51:43;;;;;;;3.50;2.50;;;17.90;99.90;;;;;;5028598;28;20147;-72
2023/07/27 11:54:09;;;;;;;3.38;2.33;;;17.90;99.90;;;;;;4999336;28;20088;-72
2023/07/27 11:56:38;;;;;;;3.30;2.40;;;17.90;99.90;;;;;;5028591;28;20079;-72
2023/07/27 11:59:07;;;;;;;3.78;2.40;;;17.90;99.90;;;;;;5026491;28;20064;-72
2023/07/27 12:01:36;;;;;;;3.53;2.58;;;18.00;99.90;;;;;;5026421;28;20045;-72
2023/07/27 12:04:06;;;;;;;3.78;2.70;;;18.00;99.90;;;;;;5026297;28;20040;-71
2023/07/27 12:06:32;;;;;;;3.40;2.60;;;18.10;99.90;;;;;;5027075;28;20055;-72
2023/07/27 12:09:00;;;;;;;3.67;2.50;;;18.10;99.90;;;;;;5029689;28;20401;-72
2023/07/27 12:11:27;;;;;;;3.97;2.85;;;18.10;99.90;;;;;;5046273;28;20072;-72
2023/07/27 12:13:53;;;;;;;9.98;2.90;;;18.20;99.90;;;;;;5035598;28;20539;-72
2023/07/27 12:16:19;;;;;;;3.65;2.60;;;18.20;99.90;;;;;;5030230;28;20052;-72
2023/07/27 12:18:45;;;;;;;3.63;2.60;;;18.20;99.90;;;;;;5027641;28;20417;-72
2023/07/27 12:21:11;;;;;;;;;;;18.20;99.90;;;;;;5029476;28;20076;-72
2023/07/27 12:23:37;;;;;;;2.47;1.85;;;18.30;99.90;;;;;;5027434;28;20008;-72
2023/07/27 12:26:03;;;;;;;3.17;2.17;;;18.20;99.90;;;;;;5028031;28;20052;-71
2023/07/27 12:28:31;;;;;;;;;;;18.30;99.90;;;;;;5024995;28;20053;-72
2023/07/27 12:30:57;;;;;;;2.67;1.75;;;18.30;99.90;;;;;;5029612;28;20007;-72
2023/07/27 12:33:27;;;;;;;;;;;18.40;99.90;;;;;;5020890;28;20057;-71
2023/07/27 12:35:53;;;;;;;2.17;1.20;;;18.40;99.90;;;;;;5029133;28;20634;-72
2023/07/27 12:38:19;;;;;;;2.97;1.23;;;18.40;99.90;;;;;;5025617;28;20037;-71
2023/07/27 12:40:46;;;;;;;1.67;0.95;;;18.50;99.90;;;;;;5028926;28;20095;-72
2023/07/27 12:43:12;;;;;;;2.67;1.17;;;18.60;99.90;;;;;;5032253;28;20087;-71
2023/07/27 12:45:38;;;;;;;;;;;18.60;99.90;;;;;;5029933;28;20051;-71
2023/07/27 12:48:05;;;;;;;1.80;1.08;;;18.60;99.90;;;;;;5008543;28;19957;-72